Time;durP1;ratioP1;P1;durP2;ratioP2;P2;SDS_P1;SDS_P2;PMS_P1;PMS_P2;Temp;Humidity;BMP_temperature;BMP_pressure;BME280_temperature;BME280_humidity;BME280_pressure;Samples;Min_cycle;Max_cycle;Signal;HPM_P1;HPM_P2
2022/06/12 00:00:11;;;;;;;2.33;1.25;;;;;;;;;;5052153;28;20025;-82
2022/06/12 00:02:37;;;;;;;1.70;1.10;;;;;;;;;;5049794;28;20033;-82
2022/06/12 00:05:04;;;;;;;1.65;1.23;;;;;;;;;;5051219;28;20025;-82
2022/06/12 00:07:30;;;;;;;4.20;1.63;;;;;;;;;;5048840;28;20049;-82
2022/06/12 00:09:56;;;;;;;4.93;1.17;;;;;;;;;;5051096;28;20397;-82
2022/06/12 00:12:23;;;;;;;2.38;1.20;;;;;;;;;;5052424;28;20037;-83
2022/06/12 00:14:49;;;;;;;1.92;1.17;;;;;;;;;;5051635;28;20420;-82
2022/06/12 00:17:15;;;;;;;2.05;1.30;;;;;;;;;;5052136;28;20019;-82
2022/06/12 00:19:44;;;;;;;5.18;1.23;;;;;;;;;;5052991;28;20033;-82
2022/06/12 00:22:11;;;;;;;6.50;1.30;;;;;;;;;;5053691;28;20035;-83
2022/06/12 00:24:37;;;;;;;3.65;1.20;;;;;;;;;;5051736;28;20045;-82
2022/06/12 00:27:04;;;;;;;6.78;1.38;;;;;;;;;;5051757;28;20045;-82
2022/06/12 00:29:32;;;;;;;4.35;1.58;;;;;;;;;;5051776;28;20017;-82
2022/06/12 00:32:03;;;;;;;1.65;1.00;;;;;;;;;;5050634;28;20027;-82
2022/06/12 00:34:31;;;;;;;2.85;1.30;;;;;;;;;;5053376;28;20482;-82
2022/06/12 00:36:58;;;;;;;4.25;1.17;;;;;;;;;;5051593;28;20025;-82
2022/06/12 00:39:25;;;;;;;6.07;1.30;;;;;;;;;;5051869;28;20057;-82
2022/06/12 00:41:52;;;;;;;1.33;1.10;;;;;;;;;;5049995;28;20021;-82
2022/06/12 00:44:23;;;;;;;7.10;1.10;;;;;;;;;;5050131;28;20025;-82
2022/06/12 00:46:51;;;;;;;3.28;1.13;;;;;;;;;;5051333;28;20036;-82
2022/06/12 00:49:24;;;;;;;2.88;1.20;;;;;;;;;;5053525;28;20478;-82
2022/06/12 00:51:52;;;;;;;2.60;1.20;;;;;;;;;;5051421;28;20514;-82
2022/06/12 00:54:20;;;;;;;1.83;1.05;;;;;;;;;;5051266;28;20477;-82
2022/06/12 00:56:49;;;;;;;3.50;1.40;;;;;;;;;;5051429;28;20066;-82
2022/06/12 00:59:31;;;;;;;2.38;1.27;;;;;;;;;;5050927;28;20025;-82
2022/06/12 01:01:58;;;;;;;4.63;1.23;;;;;;;;;;5051319;28;20025;-82
2022/06/12 01:07:11;;;;;;;4.35;1.50;;;;;;;;;;5051257;28;20053;-82
2022/06/12 01:09:40;;;;;;;4.32;1.40;;;;;;;;;;5050929;28;20520;-82
2022/06/12 01:12:09;;;;;;;4.18;1.10;;;;;;;;;;5050875;28;20039;-83
2022/06/12 01:14:37;;;;;;;2.13;1.17;;;;;;;;;;5051029;28;20013;-83
2022/06/12 01:17:05;;;;;;;2.13;1.10;;;;;;;;;;5035713;28;20032;-82
2022/06/12 01:19:34;;;;;;;5.00;1.30;;;;;;;;;;5049061;28;20037;-82
2022/06/12 01:22:13;;;;;;;4.55;1.20;;;;;;;;;;5051544;28;20078;-82
2022/06/12 01:24:58;;;;;;;3.67;1.40;;;;;;;;;;5049314;28;20049;-82
2022/06/12 01:27:30;;;;;;;2.33;1.20;;;;;;;;;;5050209;28;20048;-82
2022/06/12 01:30:02;;;;;;;4.25;1.40;;;;;;;;;;5050881;28;20074;-82
2022/06/12 01:32:38;;;;;;;2.70;0.98;;;;;;;;;;5051047;28;20035;-82
2022/06/12 01:35:20;;;;;;;1.55;1.30;;;;;;;;;;5035175;28;20037;-82
2022/06/12 01:38:03;;;;;;;3.72;1.13;;;;;;;;;;5051187;28;20027;-82
2022/06/12 01:40:32;;;;;;;2.40;1.08;;;;;;;;;;5052243;28;20025;-82
2022/06/12 01:42:58;;;;;;;2.58;1.20;;;;;;;;;;5049191;28;20045;-82
2022/06/12 01:45:35;;;;;;;4.22;1.48;;;;;;;;;;5049825;28;20527;-83
2022/06/12 01:48:01;;;;;;;2.03;1.27;;;;;;;;;;5050066;28;20037;-82
2022/06/12 01:50:48;;;;;;;3.67;1.20;;;;;;;;;;5050380;28;20389;-82
2022/06/12 01:53:37;;;;;;;1.52;1.10;;;;;;;;;;5036158;28;20029;-82
2022/06/12 01:56:11;;;;;;;1.67;1.08;;;;;;;;;;5031336;28;20053;-82
2022/06/12 01:58:46;;;;;;;2.28;1.10;;;;;;;;;;5048796;28;20017;-82
2022/06/12 02:01:12;;;;;;;2.42;1.00;;;;;;;;;;5051857;28;20063;-82
2022/06/12 02:03:46;;;;;;;3.22;1.20;;;;;;;;;;5048975;28;20025;-82
2022/06/12 02:06:25;;;;;;;2.80;1.00;;;;;;;;;;5048715;28;20452;-82
2022/06/12 02:08:51;;;;;;;0.93;0.90;;;;;;;;;;5050081;28;20024;-82
2022/06/12 02:14:17;;;;;;;2.05;1.00;;;;;;;;;;5035825;28;20025;-83
2022/06/12 02:16:45;;;;;;;1.00;0.90;;;;;;;;;;5051019;28;20039;-83
2022/06/12 02:19:15;;;;;;;3.00;1.20;;;;;;;;;;5051542;28;20507;-82
2022/06/12 02:21:47;;;;;;;2.17;1.20;;;;;;;;;;5048561;28;20525;-82
2022/06/12 02:24:16;;;;;;;2.22;1.10;;;;;;;;;;5049098;28;20045;-82
2022/06/12 02:26:45;;;;;;;3.35;1.00;;;;;;;;;;5049708;28;20037;-82
2022/06/12 02:29:17;;;;;;;1.35;1.00;;;;;;;;;;5049665;28;20401;-82
2022/06/12 02:31:45;;;;;;;3.75;1.02;;;;;;;;;;5050561;28;20033;-82
2022/06/12 02:34:24;;;;;;;5.47;1.25;;;;;;;;;;5051296;28;20485;-82
2022/06/12 02:36:52;;;;;;;1.98;1.17;;;;;;;;;;5048382;28;20035;-82
2022/06/12 02:39:21;;;;;;;2.22;1.23;;;;;;;;;;5047982;28;20017;-83
2022/06/12 02:41:50;;;;;;;2.15;1.08;;;;;;;;;;5048399;28;20035;-82
2022/06/12 02:44:20;;;;;;;1.63;1.00;;;;;;;;;;5049873;28;20062;-82
2022/06/12 02:46:48;;;;;;;8.77;1.83;;;;;;;;;;5049846;28;20041;-83
2022/06/12 02:49:15;;;;;;;2.53;1.20;;;;;;;;;;5049826;28;20110;-82
2022/06/12 02:51:51;;;;;;;1.52;1.05;;;;;;;;;;5049614;28;20029;-82
2022/06/12 02:54:24;;;;;;;1.58;1.10;;;;;;;;;;5076897;28;20501;-82
2022/06/12 02:57:09;;;;;;;1.85;1.20;;;;;;;;;;5049773;28;20029;-83
2022/06/12 02:59:36;;;;;;;2.10;1.17;;;;;;;;;;5052292;28;20017;-82
2022/06/12 03:02:06;;;;;;;2.33;1.30;;;;;;;;;;5037968;28;20022;-82
2022/06/12 03:04:41;;;;;;;3.73;1.50;;;;;;;;;;5051746;28;20031;-82
2022/06/12 03:07:07;;;;;;;8.65;1.25;;;;;;;;;;5054418;28;20039;-82
2022/06/12 03:09:34;;;;;;;3.10;1.48;;;;;;;;;;5052913;28;20485;-82
2022/06/12 03:12:00;;;;;;;2.90;1.25;;;;;;;;;;5053249;28;20029;-81
2022/06/12 03:14:27;;;;;;;2.00;0.98;;;;;;;;;;5052142;28;20027;-81
2022/06/12 03:16:53;;;;;;;1.52;1.02;;;;;;;;;;5053246;28;20036;-82
2022/06/12 03:19:28;;;;;;;2.10;1.05;;;;;;;;;;5054207;28;20020;-82
2022/06/12 03:21:54;;;;;;;2.80;1.10;;;;;;;;;;5051805;28;20396;-82
2022/06/12 03:24:21;;;;;;;3.17;1.30;;;;;;;;;;5051635;28;20041;-82
2022/06/12 03:27:03;;;;;;;1.48;1.20;;;;;;;;;;5052834;28;20063;-82
2022/06/12 03:29:48;;;;;;;3.83;1.42;;;;;;;;;;5052928;28;20515;-82
2022/06/12 03:32:26;;;;;;;4.28;1.27;;;;;;;;;;5038723;28;20050;-81
2022/06/12 03:34:52;;;;;;;1.27;1.00;;;;;;;;;;5053126;28;20031;-82
2022/06/12 03:37:22;;;;;;;2.38;1.38;;;;;;;;;;5054579;28;20028;-81
2022/06/12 03:40:08;;;;;;;3.67;1.55;;;;;;;;;;5052964;28;20025;-81
2022/06/12 03:42:39;;;;;;;1.65;0.90;;;;;;;;;;5052568;28;20494;-81
2022/06/12 03:45:26;;;;;;;2.25;1.30;;;;;;;;;;5051430;28;20039;-82
2022/06/12 03:48:03;;;;;;;3.55;1.08;;;;;;;;;;5052215;28;20040;-81
2022/06/12 03:50:41;;;;;;;1.95;1.00;;;;;;;;;;5051540;28;20025;-82
2022/06/12 03:53:19;;;;;;;2.97;1.17;;;;;;;;;;5037429;28;20052;-81
2022/06/12 03:58:40;;;;;;;1.02;0.93;;;;;;;;;;5050759;28;20032;-81
2022/06/12 04:01:07;;;;;;;5.40;1.50;;;;;;;;;;5053633;28;20031;-82
2022/06/12 04:03:35;;;;;;;5.38;1.20;;;;;;;;;;5052328;28;20021;-81
2022/06/12 04:06:10;;;;;;;3.30;1.33;;;;;;;;;;5051970;28;20036;-81
2022/06/12 04:08:38;;;;;;;1.70;1.00;;;;;;;;;;5051794;28;20050;-81
2022/06/12 04:11:06;;;;;;;6.78;1.80;;;;;;;;;;5036765;28;20037;-81
2022/06/12 04:13:34;;;;;;;1.95;1.10;;;;;;;;;;5050444;28;20025;-82
2022/06/12 04:16:06;;;;;;;4.00;1.13;;;;;;;;;;5051473;28;20033;-81
2022/06/12 04:18:33;;;;;;;3.40;1.10;;;;;;;;;;5051921;28;20035;-82
2022/06/12 04:21:02;;;;;;;2.33;1.30;;;;;;;;;;5051512;28;20063;-81
2022/06/12 04:23:32;;;;;;;5.40;1.10;;;;;;;;;;5051853;28;20029;-81
2022/06/12 04:26:01;;;;;;;3.78;1.40;;;;;;;;;;5051861;28;20417;-81
2022/06/12 04:28:39;;;;;;;3.28;1.27;;;;;;;;;;5053795;28;20428;-81
2022/06/12 04:31:09;;;;;;;4.22;1.08;;;;;;;;;;5052256;28;20021;-81
2022/06/12 04:33:54;;;;;;;4.13;1.52;;;;;;;;;;5050402;28;20094;-81
2022/06/12 04:36:21;;;;;;;2.08;1.15;;;;;;;;;;5049679;28;20043;-81
2022/06/12 04:38:48;;;;;;;2.67;1.25;;;;;;;;;;5050033;28;20043;-81
2022/06/12 04:41:20;;;;;;;5.90;1.60;;;;;;;;;;5050542;28;20025;-81
2022/06/12 04:43:46;;;;;;;3.35;1.63;;;;;;;;;;5052442;28;20025;-82
2022/06/12 04:46:12;;;;;;;5.15;1.70;;;;;;;;;;5053094;28;20043;-81
2022/06/12 04:48:40;;;;;;;2.22;1.40;;;;;;;;;;5051491;28;20020;-81
2022/06/12 04:51:07;;;;;;;7.63;1.23;;;;;;;;;;5051207;28;20043;-81
2022/06/12 04:53:33;;;;;;;2.47;1.40;;;;;;;;;;5051388;28;20017;-82
2022/06/12 04:56:00;;;;;;;3.80;1.75;;;;;;;;;;5051321;28;20515;-81
2022/06/12 04:58:26;;;;;;;2.47;1.45;;;;;;;;;;5053319;28;20035;-81
2022/06/12 05:00:53;;;;;;;6.50;1.42;;;;;;;;;;5051430;28;20021;-81
2022/06/12 05:03:19;;;;;;;2.08;1.52;;;;;;;;;;5051491;28;20029;-81
2022/06/12 05:05:45;;;;;;;2.95;1.30;;;;;;;;;;5050711;28;20393;-81
2022/06/12 05:08:12;;;;;;;1.55;1.20;;;;;;;;;;5051344;28;20025;-81
2022/06/12 05:10:39;;;;;;;4.95;1.50;;;;;;;;;;5052419;28;20029;-81
2022/06/12 05:13:05;;;;;;;2.15;1.10;;;;;;;;;;5050759;28;20052;-81
2022/06/12 05:15:32;;;;;;;5.10;1.48;;;;;;;;;;5048812;28;20019;-81
2022/06/12 05:17:58;;;;;;;4.00;1.25;;;;;;;;;;5049114;28;20029;-80
2022/06/12 05:20:27;;;;;;;2.40;1.25;;;;;;;;;;5050995;28;20017;-81
2022/06/12 05:22:54;;;;;;;3.30;1.30;;;;;;;;;;5050625;28;20048;-80
2022/06/12 05:25:21;;;;;;;1.67;1.30;;;;;;;;;;5053069;28;20045;-81
2022/06/12 05:27:48;;;;;;;4.53;1.20;;;;;;;;;;5050504;28;20051;-82
2022/06/12 05:30:17;;;;;;;2.10;1.10;;;;;;;;;;5050913;28;20070;-81
2022/06/12 05:32:44;;;;;;;1.80;1.27;;;;;;;;;;5050283;28;20500;-82
2022/06/12 05:35:11;;;;;;;5.00;1.30;;;;;;;;;;5050644;28;20152;-81
2022/06/12 05:37:38;;;;;;;5.95;1.40;;;;;;;;;;5051652;28;20082;-82
2022/06/12 05:40:06;;;;;;;1.58;1.20;;;;;;;;;;5051128;28;20025;-81
2022/06/12 05:42:32;;;;;;;4.43;1.48;;;;;;;;;;5050408;28;20025;-81
2022/06/12 05:44:59;;;;;;;2.70;1.25;;;;;;;;;;5050243;28;20025;-81
2022/06/12 05:47:25;;;;;;;1.90;1.33;;;;;;;;;;5050206;28;20029;-81
2022/06/12 05:49:51;;;;;;;1.73;1.30;;;;;;;;;;5050293;28;20477;-82
2022/06/12 05:52:17;;;;;;;1.88;1.23;;;;;;;;;;5052324;28;20021;-82
2022/06/12 05:54:44;;;;;;;2.05;1.40;;;;;;;;;;5049070;28;20032;-81
2022/06/12 05:57:10;;;;;;;1.33;1.10;;;;;;;;;;5048774;28;20032;-82
2022/06/12 05:59:36;;;;;;;2.80;1.38;;;;;;;;;;5050412;28;20028;-82
2022/06/12 06:02:03;;;;;;;4.00;1.10;;;;;;;;;;5034058;28;20025;-82
2022/06/12 06:04:29;;;;;;;1.77;1.60;;;;;;;;;;5052025;28;20025;-82
2022/06/12 06:07:00;;;;;;;4.47;1.55;;;;;;;;;;5049801;28;20040;-81
2022/06/12 06:09:27;;;;;;;4.75;1.25;;;;;;;;;;5050223;28;20025;-82
2022/06/12 06:11:54;;;;;;;2.55;1.40;;;;;;;;;;5050068;28;20009;-82
2022/06/12 06:14:21;;;;;;;1.50;1.15;;;;;;;;;;5050030;28;20021;-82
2022/06/12 06:16:47;;;;;;;2.75;1.50;;;;;;;;;;5049731;28;20031;-82
2022/06/12 06:19:14;;;;;;;4.32;1.80;;;;;;;;;;5051861;28;20024;-82
2022/06/12 06:21:41;;;;;;;2.33;1.65;;;;;;;;;;5049818;28;20550;-82
2022/06/12 06:24:11;;;;;;;3.65;1.55;;;;;;;;;;5049490;28;20051;-81
2022/06/12 06:26:37;;;;;;;3.97;1.40;;;;;;;;;;5049770;28;20067;-82
2022/06/12 06:29:04;;;;;;;1.35;1.23;;;;;;;;;;5049793;28;20029;-82
2022/06/12 06:31:30;;;;;;;3.90;1.40;;;;;;;;;;5051593;28;20044;-82
2022/06/12 06:33:56;;;;;;;1.88;1.25;;;;;;;;;;5048380;28;20022;-82
2022/06/12 06:36:23;;;;;;;2.38;1.20;;;;;;;;;;5048447;28;20033;-83
2022/06/12 06:38:54;;;;;;;2.38;1.30;;;;;;;;;;5049814;28;20024;-82
2022/06/12 06:41:20;;;;;;;4.20;1.40;;;;;;;;;;5048281;28;20039;-82
2022/06/12 06:46:32;;;;;;;2.33;1.45;;;;;;;;;;5047265;28;20105;-82
2022/06/12 06:48:59;;;;;;;5.97;1.55;;;;;;;;;;5049860;28;20112;-82
2022/06/12 06:51:25;;;;;;;4.88;1.60;;;;;;;;;;5049479;28;20435;-82
2022/06/12 06:53:51;;;;;;;1.77;1.50;;;;;;;;;;5049517;28;20466;-83
2022/06/12 06:56:18;;;;;;;6.10;1.30;;;;;;;;;;5049627;28;20025;-82
2022/06/12 06:58:45;;;;;;;3.78;1.40;;;;;;;;;;5050174;28;20033;-83
2022/06/12 07:01:11;;;;;;;3.22;1.42;;;;;;;;;;5050868;28;20029;-83
2022/06/12 07:03:37;;;;;;;2.88;1.30;;;;;;;;;;5049321;28;20017;-82
2022/06/12 07:06:04;;;;;;;1.65;1.20;;;;;;;;;;5049159;28;20041;-83
2022/06/12 07:08:30;;;;;;;4.22;1.60;;;;;;;;;;5049667;28;20013;-82
2022/06/12 07:10:57;;;;;;;2.40;1.25;;;;;;;;;;5047881;28;20042;-83
2022/06/12 07:13:24;;;;;;;2.75;1.30;;;;;;;;;;5049452;28;20439;-83
2022/06/12 07:15:50;;;;;;;1.27;1.10;;;;;;;;;;5047814;28;20021;-83
2022/06/12 07:18:18;;;;;;;4.50;1.48;;;;;;;;;;5049154;28;20033;-83
2022/06/12 07:20:47;;;;;;;5.90;1.40;;;;;;;;;;5049444;28;20031;-84
2022/06/12 07:23:14;;;;;;;2.10;1.17;;;;;;;;;;5049179;28;20040;-83
2022/06/12 07:25:44;;;;;;;2.80;1.38;;;;;;;;;;5050557;28;20017;-83
2022/06/12 07:28:11;;;;;;;5.18;1.10;;;;;;;;;;5050388;28;20037;-84
2022/06/12 07:30:37;;;;;;;7.25;1.27;;;;;;;;;;5048807;28;20013;-82
2022/06/12 07:33:04;;;;;;;5.00;1.40;;;;;;;;;;5049155;28;20039;-82
2022/06/12 07:35:31;;;;;;;1.48;1.13;;;;;;;;;;5049138;28;20025;-82
2022/06/12 07:37:57;;;;;;;2.25;1.05;;;;;;;;;;5049278;28;20029;-82
2022/06/12 07:40:27;;;;;;;7.32;1.38;;;;;;;;;;5051349;28;20047;-82
2022/06/12 07:42:54;;;;;;;1.20;1.10;;;;;;;;;;5049166;28;20017;-82
2022/06/12 07:45:20;;;;;;;7.50;1.55;;;;;;;;;;5050235;28;20086;-82
2022/06/12 07:47:47;;;;;;;5.10;1.40;;;;;;;;;;5052494;28;20039;-83
2022/06/12 07:50:15;;;;;;;6.75;1.45;;;;;;;;;;5051100;28;20498;-82
2022/06/12 07:52:41;;;;;;;6.25;1.38;;;;;;;;;;5053917;28;20035;-82
2022/06/12 07:55:09;;;;;;;4.13;1.30;;;;;;;;;;5052371;28;20082;-82
2022/06/12 07:57:36;;;;;;;3.45;1.20;;;;;;;;;;5052236;28;20018;-82
2022/06/12 08:00:04;;;;;;;2.78;1.40;;;;;;;;;;5052522;28;20021;-82
2022/06/12 08:02:31;;;;;;;1.20;1.10;;;;;;;;;;5050069;28;20021;-83
2022/06/12 08:04:57;;;;;;;1.63;1.20;;;;;;;;;;5052396;28;20029;-82
2022/06/12 08:07:24;;;;;;;3.67;1.17;;;;;;;;;;5054257;28;20029;-82
2022/06/12 08:09:50;;;;;;;8.18;1.30;;;;;;;;;;5052325;28;20021;-82
2022/06/12 08:12:16;;;;;;;2.00;1.17;;;;;;;;;;5051637;28;20397;-83
2022/06/12 08:14:43;;;;;;;3.22;1.20;;;;;;;;;;5052444;28;20021;-82
2022/06/12 08:17:10;;;;;;;7.90;1.52;;;;;;;;;;5051160;28;20041;-83
2022/06/12 08:22:21;;;;;;;8.63;1.55;;;;;;;;;;5070719;28;20039;-82
2022/06/12 08:24:47;;;;;;;2.38;1.38;;;;;;;;;;5048872;28;20041;-82
2022/06/12 08:27:14;;;;;;;2.25;1.25;;;;;;;;;;5051435;28;20037;-82
2022/06/12 08:29:41;;;;;;;2.22;1.25;;;;;;;;;;5050285;28;20036;-81
2022/06/12 08:32:16;;;;;;;6.82;1.27;;;;;;;;;;5050775;28;20025;-82
2022/06/12 08:34:48;;;;;;;6.95;1.20;;;;;;;;;;5052712;28;20021;-82
2022/06/12 08:37:17;;;;;;;5.05;1.40;;;;;;;;;;5051611;28;20025;-82
2022/06/12 08:39:43;;;;;;;4.03;1.30;;;;;;;;;;5050764;28;20041;-82
2022/06/12 08:42:29;;;;;;;5.07;1.42;;;;;;;;;;5051220;28;20037;-82
2022/06/12 08:44:58;;;;;;;5.53;1.30;;;;;;;;;;5050307;28;20013;-81
2022/06/12 08:47:27;;;;;;;5.32;1.40;;;;;;;;;;5051580;28;20504;-82
2022/06/12 08:49:54;;;;;;;2.15;1.23;;;;;;;;;;5050216;28;20024;-83
2022/06/12 08:52:43;;;;;;;1.65;1.17;;;;;;;;;;5053378;28;20029;-81
2022/06/12 08:55:27;;;;;;;3.70;1.33;;;;;;;;;;5052638;28;20082;-82
2022/06/12 08:57:53;;;;;;;1.45;1.15;;;;;;;;;;5051365;28;20027;-82
2022/06/12 09:00:21;;;;;;;3.25;1.40;;;;;;;;;;5051234;28;20021;-81
2022/06/12 09:02:49;;;;;;;2.65;1.40;;;;;;;;;;5051164;28;20035;-82
2022/06/12 09:05:19;;;;;;;1.58;1.25;;;;;;;;;;5051345;28;20389;-82
2022/06/12 09:08:06;;;;;;;2.45;1.27;;;;;;;;;;5051973;28;20154;-81
2022/06/12 09:10:34;;;;;;;2.30;1.20;;;;;;;;;;5049019;28;20033;-80
2022/06/12 09:13:15;;;;;;;1.77;1.33;;;;;;;;;;5079308;28;20570;-82
2022/06/12 09:15:50;;;;;;;3.30;1.23;;;;;;;;;;5050990;28;20120;-82
2022/06/12 09:18:16;;;;;;;1.67;1.30;;;;;;;;;;5049683;28;20025;-81
2022/06/12 09:20:43;;;;;;;2.47;1.20;;;;;;;;;;5051126;28;20027;-80
2022/06/12 09:23:15;;;;;;;1.70;1.30;;;;;;;;;;5049543;28;20571;-81
2022/06/12 09:25:41;;;;;;;3.00;1.27;;;;;;;;;;5051515;28;20094;-81
2022/06/12 09:28:23;;;;;;;2.80;1.20;;;;;;;;;;5051876;28;20090;-80
2022/06/12 09:30:53;;;;;;;1.17;1.08;;;;;;;;;;5050809;28;20020;-80
2022/06/12 09:33:38;;;;;;;1.05;0.93;;;;;;;;;;5050694;28;20024;-80
2022/06/12 09:36:24;;;;;;;1.15;1.08;;;;;;;;;;5050481;28;20035;-80
2022/06/12 09:39:10;;;;;;;3.03;1.33;;;;;;;;;;5050375;28;20036;-81
2022/06/12 09:41:51;;;;;;;2.22;1.30;;;;;;;;;;5050563;28;20397;-81
2022/06/12 09:44:23;;;;;;;1.55;1.33;;;;;;;;;;5036598;28;20482;-80
2022/06/12 09:47:10;;;;;;;2.88;1.30;;;;;;;;;;5051148;28;20040;-82
2022/06/12 09:49:42;;;;;;;1.33;1.20;;;;;;;;;;5048385;28;20035;-80
2022/06/12 09:52:17;;;;;;;1.42;1.30;;;;;;;;;;5051308;28;20074;-80
2022/06/12 09:54:58;;;;;;;2.38;1.40;;;;;;;;;;5049817;28;20043;-82
2022/06/12 09:57:30;;;;;;;2.58;1.42;;;;;;;;;;5049050;28;20031;-80
2022/06/12 10:00:03;;;;;;;1.48;1.38;;;;;;;;;;5050299;28;20021;-81
2022/06/12 10:02:47;;;;;;;1.33;1.23;;;;;;;;;;5050281;28;20021;-80
2022/06/12 10:05:17;;;;;;;1.33;1.23;;;;;;;;;;5033229;28;20029;-81
2022/06/12 10:08:09;;;;;;;1.60;1.42;;;;;;;;;;5050199;28;20040;-79
2022/06/12 10:10:48;;;;;;;3.75;1.33;;;;;;;;;;5077636;28;20032;-81
2022/06/12 10:13:16;;;;;;;3.25;1.40;;;;;;;;;;5049817;28;20035;-81
2022/06/12 10:15:46;;;;;;;1.42;1.30;;;;;;;;;;5050191;28;20033;-80
2022/06/12 10:18:22;;;;;;;2.20;2.10;;;;;;;;;;5050012;28;20021;-80
2022/06/12 10:20:52;;;;;;;1.60;1.50;;;;;;;;;;5050087;28;20027;-81
2022/06/12 10:23:19;;;;;;;1.38;1.27;;;;;;;;;;5049526;28;20029;-79
2022/06/12 10:25:53;;;;;;;2.35;1.30;;;;;;;;;;5050682;28;20055;-80
2022/06/12 10:28:23;;;;;;;1.20;1.10;;;;;;;;;;5050288;28;20064;-81
2022/06/12 10:31:05;;;;;;;1.73;1.35;;;;;;;;;;5048548;28;20065;-81
2022/06/12 10:33:51;;;;;;;1.20;1.10;;;;;;;;;;5048398;28;20044;-81
2022/06/12 10:36:17;;;;;;;1.67;1.58;;;;;;;;;;5049469;28;20400;-80
2022/06/12 10:38:44;;;;;;;1.25;1.10;;;;;;;;;;5048254;28;20037;-80
2022/06/12 10:41:22;;;;;;;1.27;1.02;;;;;;;;;;5049595;28;20035;-80
2022/06/12 10:43:50;;;;;;;1.67;1.27;;;;;;;;;;5048928;28;20039;-80
2022/06/12 10:46:21;;;;;;;2.55;1.35;;;;;;;;;;5049663;28;20052;-80
2022/06/12 10:49:03;;;;;;;1.95;1.10;;;;;;;;;;5048142;28;20033;-79
2022/06/12 10:51:36;;;;;;;1.63;1.02;;;;;;;;;;5049164;28;20033;-79
2022/06/12 10:54:17;;;;;;;3.00;1.20;;;;;;;;;;5049516;28;20490;-79
2022/06/12 10:56:49;;;;;;;1.48;1.15;;;;;;;;;;5049460;28;20024;-80
2022/06/12 10:59:19;;;;;;;2.20;1.30;;;;;;;;;;5049572;28;20027;-81
2022/06/12 11:01:51;;;;;;;1.35;0.90;;;;;;;;;;5050174;28;20035;-80
2022/06/12 11:04:33;;;;;;;1.98;1.00;;;;;;;;;;5049722;28;20039;-80
2022/06/12 11:06:59;;;;;;;1.25;1.15;;;;;;;;;;5047340;28;20404;-80
2022/06/12 11:09:25;;;;;;;1.77;1.10;;;;;;;;;;5048376;28;20036;-80
2022/06/12 11:12:02;;;;;;;0.90;0.90;;;;;;;;;;5049629;28;20017;-81
2022/06/12 11:14:31;;;;;;;1.30;1.20;;;;;;;;;;5049687;28;20033;-81
2022/06/12 11:17:15;;;;;;;1.60;1.17;;;;;;;;;;5049309;28;20021;-79
2022/06/12 11:20:00;;;;;;;1.35;1.20;;;;;;;;;;5050980;28;20078;-81
2022/06/12 11:22:26;;;;;;;8.23;1.45;;;;;;;;;;5054729;28;20035;-80
2022/06/12 11:25:11;;;;;;;3.03;1.30;;;;;;;;;;5052981;28;20033;-79
2022/06/12 11:27:49;;;;;;;2.55;1.33;;;;;;;;;;5053056;28;20037;-80
2022/06/12 11:30:21;;;;;;;1.85;1.10;;;;;;;;;;5053137;28;20020;-79
2022/06/12 11:32:48;;;;;;;3.00;1.23;;;;;;;;;;5053216;28;20029;-81
2022/06/12 11:35:14;;;;;;;2.70;1.27;;;;;;;;;;5052680;28;20224;-79
2022/06/12 11:37:50;;;;;;;1.33;1.20;;;;;;;;;;5054289;28;20033;-80
2022/06/12 11:40:16;;;;;;;1.50;1.40;;;;;;;;;;5053631;28;20074;-81
2022/06/12 11:43:01;;;;;;;1.65;1.10;;;;;;;;;;5052877;28;20497;-80
2022/06/12 11:45:33;;;;;;;1.30;1.20;;;;;;;;;;5051202;28;20029;-80
2022/06/12 11:48:00;;;;;;;5.85;1.20;;;;;;;;;;5051303;28;20498;-80
2022/06/12 11:50:32;;;;;;;2.45;1.10;;;;;;;;;;5052496;28;20029;-80
2022/06/12 11:52:59;;;;;;;2.03;1.20;;;;;;;;;;5052658;28;20081;-80
2022/06/12 11:55:34;;;;;;;1.48;1.10;;;;;;;;;;5054527;28;20448;-81
2022/06/12 11:58:11;;;;;;;1.55;1.30;;;;;;;;;;5052981;28;20481;-81
2022/06/12 12:00:37;;;;;;;2.35;1.17;;;;;;;;;;5052572;28;20025;-81
2022/06/12 12:03:15;;;;;;;2.42;1.15;;;;;;;;;;5052364;28;20020;-80
2022/06/12 12:05:49;;;;;;;3.42;1.30;;;;;;;;;;5052310;28;20024;-79
2022/06/12 12:08:24;;;;;;;2.42;1.33;;;;;;;;;;5052349;28;20032;-80
2022/06/12 12:10:57;;;;;;;3.00;1.20;;;;;;;;;;5052296;28;20013;-79
2022/06/12 12:13:37;;;;;;;3.35;1.13;;;;;;;;;;5054581;28;20021;-81
2022/06/12 12:16:11;;;;;;;1.98;1.42;;;;;;;;;;5051181;28;20029;-81
2022/06/12 12:18:53;;;;;;;1.92;1.02;;;;;;;;;;5051684;28;20033;-79
2022/06/12 12:21:35;;;;;;;2.70;1.30;;;;;;;;;;5050799;28;20485;-80
2022/06/12 12:24:05;;;;;;;3.38;1.48;;;;;;;;;;5050348;28;20049;-80
2022/06/12 12:26:33;;;;;;;;;;;;;;;;;;5051010;28;20045;-80
2022/06/12 12:29:03;;;;;;;2.72;1.40;;;;;;;;;;5051964;28;19905;-80
2022/06/12 12:31:30;;;;;;;3.85;1.30;;;;;;;;;;5053185;28;20032;-79
2022/06/12 12:33:58;;;;;;;6.90;1.40;;;;;;;;;;5051603;28;20055;-80
2022/06/12 12:42:08;;;;;;;3.42;1.83;;;;;;;;;;5051646;28;20018;-80
2022/06/12 12:44:38;;;;;;;3.33;1.63;;;;;;;;;;5051663;28;20397;-80
2022/06/12 12:47:18;;;;;;;8.93;2.03;;;;;;;;;;5035901;28;20441;-79
2022/06/12 12:49:44;;;;;;;4.75;1.70;;;;;;;;;;5049676;28;20033;-80
2022/06/12 12:52:16;;;;;;;6.78;1.60;;;;;;;;;;5052739;28;20503;-80
2022/06/12 12:54:49;;;;;;;3.28;1.40;;;;;;;;;;5051497;28;20029;-79
2022/06/12 12:57:17;;;;;;;4.60;1.58;;;;;;;;;;5051321;28;20404;-79
2022/06/12 12:59:48;;;;;;;2.55;1.33;;;;;;;;;;5051385;28;20027;-80
2022/06/12 13:02:30;;;;;;;2.03;1.20;;;;;;;;;;5049365;28;20554;-79
2022/06/12 13:05:01;;;;;;;3.63;1.38;;;;;;;;;;5051210;28;20047;-79
2022/06/12 13:07:38;;;;;;;6.05;1.50;;;;;;;;;;5052599;28;20025;-80
2022/06/12 13:10:27;;;;;;;2.33;1.60;;;;;;;;;;5050347;28;20082;-80
2022/06/12 13:12:59;;;;;;;4.68;1.50;;;;;;;;;;5030360;28;20045;-79
2022/06/12 13:15:44;;;;;;;3.00;1.52;;;;;;;;;;5024336;28;20040;-80
2022/06/12 13:18:19;;;;;;;1.50;1.20;;;;;;;;;;5019034;28;20081;-80
2022/06/12 13:20:58;;;;;;;5.15;1.20;;;;;;;;;;5019165;28;20033;-80
2022/06/12 13:23:36;;;;;;;1.85;1.10;;;;;;;;;;5017105;28;20518;-80
2022/06/12 13:26:06;;;;;;;1.77;1.20;;;;;;;;;;4997895;28;20033;-79
2022/06/12 13:28:33;;;;;;;1.88;1.00;;;;;;;;;;5026570;28;20193;-80
2022/06/12 13:31:01;;;;;;;2.40;1.10;;;;;;;;;;5018821;28;20034;-79
2022/06/12 13:33:28;;;;;;;5.25;1.17;;;;;;;;;;5019287;28;20083;-80
2022/06/12 13:35:56;;;;;;;9.13;1.45;;;;;;;;;;5018717;28;20021;-80
2022/06/12 13:38:27;;;;;;;1.30;1.02;;;;;;;;;;5016861;28;20029;-80
2022/06/12 13:40:59;;;;;;;1.80;1.40;;;;;;;;;;5013652;28;20034;-81
2022/06/12 13:43:28;;;;;;;3.17;1.40;;;;;;;;;;5015165;28;20446;-80
2022/06/12 13:45:57;;;;;;;6.90;1.58;;;;;;;;;;5028926;28;20033;-80
2022/06/12 13:48:25;;;;;;;2.22;1.30;;;;;;;;;;5023742;28;20074;-80
2022/06/12 13:50:54;;;;;;;2.08;1.30;;;;;;;;;;5038785;28;20033;-81
2022/06/12 13:53:21;;;;;;;3.78;1.58;;;;;;;;;;5050566;28;20029;-81
2022/06/12 13:55:52;;;;;;;3.05;1.40;;;;;;;;;;5050861;28;20032;-80
2022/06/12 13:58:21;;;;;;;2.95;1.30;;;;;;;;;;5050576;28;20017;-80
2022/06/12 14:00:47;;;;;;;4.80;1.45;;;;;;;;;;5049778;28;20379;-81
2022/06/12 14:03:18;;;;;;;3.90;1.35;;;;;;;;;;5049999;28;20025;-81
2022/06/12 14:05:48;;;;;;;11.25;1.30;;;;;;;;;;5050041;28;20504;-80
2022/06/12 14:08:14;;;;;;;4.18;1.45;;;;;;;;;;5049872;28;20506;-81
2022/06/12 14:10:43;;;;;;;7.97;3.00;;;;;;;;;;5051429;28;20494;-80
2022/06/12 14:13:18;;;;;;;5.93;1.15;;;;;;;;;;5051455;28;20037;-81
2022/06/12 14:15:44;;;;;;;3.30;1.40;;;;;;;;;;5049525;28;20021;-80
2022/06/12 14:18:30;;;;;;;1.83;1.30;;;;;;;;;;5049820;28;20142;-81
2022/06/12 14:21:00;;;;;;;3.22;1.23;;;;;;;;;;5048320;28;20473;-81
2022/06/12 14:23:28;;;;;;;3.08;1.25;;;;;;;;;;5048442;28;20115;-80
2022/06/12 14:26:14;;;;;;;3.92;1.30;;;;;;;;;;5049798;28;20447;-80
2022/06/12 14:28:40;;;;;;;4.65;1.40;;;;;;;;;;5048087;28;20039;-80
2022/06/12 14:31:07;;;;;;;4.55;1.30;;;;;;;;;;5049666;28;20017;-80
2022/06/12 14:33:53;;;;;;;2.25;1.23;;;;;;;;;;5048945;28;20028;-81
2022/06/12 14:36:26;;;;;;;7.40;1.27;;;;;;;;;;5049662;28;20028;-82
2022/06/12 14:38:52;;;;;;;2.22;1.40;;;;;;;;;;5049492;28;20021;-82
2022/06/12 14:41:20;;;;;;;1.55;1.10;;;;;;;;;;5049503;28;20047;-82
2022/06/12 14:43:47;;;;;;;2.95;1.40;;;;;;;;;;5049594;28;20033;-82
2022/06/12 14:46:18;;;;;;;4.95;1.20;;;;;;;;;;5051459;28;20035;-80
2022/06/12 14:48:44;;;;;;;2.53;1.40;;;;;;;;;;5049724;28;20037;-80
2022/06/12 14:51:11;;;;;;;3.97;1.48;;;;;;;;;;5049719;28;20456;-81
2022/06/12 14:53:37;;;;;;;3.45;1.15;;;;;;;;;;5050030;28;20390;-81
2022/06/12 14:56:07;;;;;;;3.85;1.30;;;;;;;;;;5037915;28;20036;-81
2022/06/12 14:58:38;;;;;;;3.78;1.27;;;;;;;;;;5051482;28;20481;-81
2022/06/12 15:01:10;;;;;;;5.60;1.40;;;;;;;;;;5053292;28;20029;-80
2022/06/12 15:03:37;;;;;;;2.38;1.33;;;;;;;;;;5052276;28;20021;-80
2022/06/12 15:06:03;;;;;;;4.07;1.40;;;;;;;;;;5053506;28;20047;-81
2022/06/12 15:08:30;;;;;;;3.30;1.20;;;;;;;;;;5052194;28;20021;-80
2022/06/12 15:10:57;;;;;;;7.05;1.27;;;;;;;;;;5053597;28;20405;-80
2022/06/12 15:13:25;;;;;;;4.07;1.45;;;;;;;;;;5055312;28;20035;-81
2022/06/12 15:15:51;;;;;;;4.45;1.38;;;;;;;;;;5053300;28;20033;-81
2022/06/12 15:18:18;;;;;;;5.82;1.50;;;;;;;;;;5053310;28;20021;-80
2022/06/12 15:20:46;;;;;;;2.72;1.20;;;;;;;;;;5053372;28;20025;-80
2022/06/12 15:23:14;;;;;;;2.20;1.20;;;;;;;;;;5053345;28;20500;-79